createdAt,value
2022-09-12T00:00:33.601Z,89.20
2022-09-12T00:01:32.631Z,89.30
2022-09-12T00:02:33.314Z,88.90
2022-09-12T00:03:32.563Z,89.16
2022-09-12T00:04:32.549Z,89.10
2022-09-12T00:05:32.569Z,88.75
2022-09-12T00:06:33.342Z,88.49
2022-09-12T00:07:32.548Z,88.39
2022-09-12T00:08:32.554Z,89.30
2022-09-12T00:09:33.309Z,89.20
2022-09-12T00:10:32.521Z,89.10
2022-09-12T00:11:32.578Z,88.59
2022-09-12T00:12:32.526Z,88.49
2022-09-12T00:13:32.529Z,88.59
2022-09-12T00:14:32.500Z,89.14
2022-09-12T00:15:32.514Z,89.30
2022-09-12T00:16:32.524Z,89.30
2022-09-12T00:17:32.469Z,89.40
2022-09-12T00:18:32.553Z,89.20
2022-09-12T00:19:32.457Z,89.20
2022-09-12T00:20:32.445Z,88.45
2022-09-12T00:21:32.460Z,88.79
2022-09-12T00:22:32.461Z,88.79
2022-09-12T00:23:32.434Z,88.85
2022-09-12T00:24:32.421Z,88.65
2022-09-12T00:25:32.417Z,88.65
2022-09-12T00:26:32.425Z,88.24
2022-09-12T00:27:32.405Z,88.59
2022-09-12T00:28:32.397Z,88.55
2022-09-12T00:29:32.437Z,88.75
2022-09-12T00:30:32.401Z,88.55
2022-09-12T00:31:32.527Z,88.59
2022-09-12T00:32:32.405Z,89.16
2022-09-12T00:33:32.376Z,89.36
2022-09-12T00:34:32.365Z,88.55
2022-09-12T00:35:32.371Z,88.65
2022-09-12T00:36:32.353Z,88.34
2022-09-12T00:37:32.345Z,88.14
2022-09-12T00:38:32.330Z,88.55
2022-09-12T00:39:32.337Z,89.47
2022-09-12T00:40:32.381Z,88.96
2022-09-12T00:41:32.336Z,88.40
2022-09-12T00:42:32.381Z,88.00
2022-09-12T00:43:32.326Z,87.73
2022-09-12T00:44:32.305Z,87.53
2022-09-12T00:45:32.360Z,88.45
2022-09-12T00:46:32.296Z,88.49
2022-09-12T00:47:32.310Z,88.69
2022-09-12T00:48:32.295Z,89.10
2022-09-12T00:49:32.308Z,88.14
2022-09-12T00:50:32.280Z,87.98
2022-09-12T00:51:32.253Z,88.04
2022-09-12T00:52:32.285Z,87.49
2022-09-12T00:54:04.676Z,87.23
2022-09-12T00:54:32.233Z,86.92
2022-09-12T00:55:32.234Z,87.53
2022-09-12T00:56:32.240Z,87.57
2022-09-12T00:57:32.224Z,88.18
2022-09-12T00:58:32.202Z,88.63
2022-09-12T00:59:32.236Z,89.18
2022-09-12T01:00:32.200Z,89.28
2022-09-12T01:01:32.876Z,89.45
2022-09-12T01:02:33.179Z,89.25
2022-09-12T01:03:32.172Z,89.34
2022-09-12T01:04:32.192Z,88.84
2022-09-12T01:05:32.170Z,88.88
2022-09-12T01:06:32.160Z,88.93
2022-09-12T01:07:34.063Z,89.25
2022-09-12T01:08:33.153Z,88.98
2022-09-12T01:09:32.147Z,88.88
2022-09-12T01:10:32.180Z,89.28
2022-09-12T01:11:32.124Z,89.43
2022-09-12T01:12:32.120Z,90.35
2022-09-12T01:13:32.116Z,90.00
2022-09-12T01:14:32.120Z,90.04
2022-09-12T01:15:32.103Z,90.20
2022-09-12T01:16:32.141Z,89.59
2022-09-12T01:17:32.088Z,89.25
2022-09-12T01:18:32.095Z,89.45
2022-09-12T01:19:32.107Z,88.73
2022-09-12T01:20:32.072Z,89.25
2022-09-12T01:21:32.112Z,89.39
2022-09-12T01:22:32.058Z,89.45
2022-09-12T01:23:32.044Z,89.34
2022-09-12T01:24:32.059Z,88.22
2022-09-12T01:25:32.028Z,88.84
2022-09-12T01:26:32.043Z,88.63
2022-09-12T01:27:32.032Z,88.84
2022-09-12T01:28:32.024Z,88.88
2022-09-12T01:29:32.020Z,89.08
2022-09-12T01:30:32.019Z,89.28
2022-09-12T01:31:32.008Z,89.23
2022-09-12T01:32:31.992Z,89.28
2022-09-12T01:33:31.994Z,89.55
2022-09-12T01:34:31.994Z,89.04
2022-09-12T01:35:31.966Z,89.34
2022-09-12T01:36:31.982Z,88.93
2022-09-12T01:37:31.968Z,88.49
2022-09-12T01:38:31.964Z,88.49
2022-09-12T01:39:31.959Z,88.59
2022-09-12T01:40:32.001Z,88.59
2022-09-12T01:41:31.953Z,88.90
2022-09-12T01:42:31.942Z,89.14
2022-09-12T01:43:31.937Z,89.92
2022-09-12T01:44:31.937Z,89.61
2022-09-12T01:45:31.971Z,90.16
2022-09-12T01:46:31.936Z,90.32
2022-09-12T01:47:31.915Z,90.22
2022-09-12T01:48:31.924Z,90.12
2022-09-12T01:49:31.898Z,89.92
2022-09-12T01:50:31.909Z,88.85
2022-09-12T01:51:31.889Z,89.06
2022-09-12T01:52:31.871Z,89.61
2022-09-12T01:53:31.884Z,89.40
2022-09-12T01:54:31.863Z,90.32
2022-09-12T01:55:31.900Z,90.01
2022-09-12T01:56:31.859Z,90.01
2022-09-12T01:57:31.851Z,89.61
2022-09-12T01:58:31.855Z,89.87
2022-09-12T01:59:31.843Z,90.28
2022-09-12T02:00:31.851Z,89.77
2022-09-12T02:01:31.856Z,89.57
2022-09-12T02:02:31.819Z,89.77
2022-09-12T02:03:31.816Z,89.01
2022-09-12T02:04:34.228Z,89.01
2022-09-12T02:05:32.821Z,89.12
2022-09-12T02:06:31.807Z,89.12
2022-09-12T02:07:31.852Z,89.32
2022-09-12T02:08:31.790Z,89.06
2022-09-12T02:09:31.792Z,89.22
2022-09-12T02:10:32.661Z,88.87
2022-09-12T02:11:32.779Z,88.53
2022-09-12T02:12:31.781Z,87.81
2022-09-12T02:13:31.766Z,87.71
2022-09-12T02:14:31.755Z,87.16
2022-09-12T02:15:31.750Z,86.65
2022-09-12T02:16:31.782Z,86.15
2022-09-12T02:17:31.739Z,86.15
2022-09-12T02:18:31.727Z,86.04
2022-09-12T02:19:31.710Z,86.25
2022-09-12T02:20:47.281Z,86.69
2022-09-12T02:21:33.734Z,87.10
2022-09-12T02:22:31.722Z,87.10
2022-09-12T02:23:31.695Z,87.10
2022-09-12T02:24:31.693Z,88.22
2022-09-12T02:25:31.714Z,87.71
2022-09-12T02:26:31.674Z,87.61
2022-09-12T02:27:31.670Z,87.41
2022-09-12T02:28:31.671Z,87.41
2022-09-12T02:29:31.663Z,87.71
2022-09-12T02:30:31.694Z,87.51
2022-09-12T02:31:31.646Z,87.47
2022-09-12T02:32:31.687Z,86.96
2022-09-12T02:33:31.665Z,86.15
2022-09-12T02:34:31.626Z,86.65
2022-09-12T02:35:31.634Z,86.96
2022-09-12T02:36:31.617Z,87.51
2022-09-12T02:37:31.611Z,87.77
2022-09-12T02:38:31.658Z,88.18
2022-09-12T02:39:31.586Z,88.18
2022-09-12T02:40:31.586Z,88.08
2022-09-12T02:41:31.574Z,87.93
2022-09-12T02:42:31.579Z,87.37
2022-09-12T02:43:31.563Z,87.77
2022-09-12T02:44:31.562Z,87.84
2022-09-12T02:45:31.579Z,87.73
2022-09-12T02:46:31.534Z,87.63
2022-09-12T02:47:31.538Z,87.23
2022-09-12T02:48:31.540Z,87.98
2022-09-12T02:49:31.536Z,87.93
2022-09-12T02:50:31.525Z,87.93
2022-09-12T02:51:31.524Z,87.79
2022-09-12T02:52:31.507Z,87.08
2022-09-12T02:53:31.494Z,87.18
2022-09-12T02:54:31.507Z,87.18
2022-09-12T02:55:31.495Z,87.08
2022-09-12T02:56:31.475Z,87.49
2022-09-12T02:57:31.463Z,88.24
2022-09-12T02:58:31.463Z,88.30
2022-09-12T02:59:31.457Z,87.79
2022-09-12T03:00:31.460Z,87.59
2022-09-12T03:01:31.489Z,88.04
2022-09-12T03:02:31.439Z,88.34
2022-09-12T03:03:31.448Z,88.79
2022-09-12T03:04:31.418Z,89.00
2022-09-12T03:05:31.428Z,89.26
2022-09-12T03:06:31.417Z,89.81
2022-09-12T03:07:31.394Z,89.61
2022-09-12T03:08:31.401Z,90.22
2022-09-12T03:09:31.459Z,90.31
2022-09-12T03:10:31.403Z,91.07
2022-09-12T03:11:31.383Z,92.74
2022-09-12T03:12:31.354Z,92.48
2022-09-12T03:13:31.363Z,93.40
2022-09-12T03:14:31.350Z,94.21
2022-09-12T03:15:31.356Z,93.76
2022-09-12T03:16:31.372Z,93.47
2022-09-12T03:17:31.350Z,93.16
2022-09-12T03:18:31.322Z,92.19
2022-09-12T03:19:31.309Z,91.53
2022-09-12T03:20:31.313Z,91.72
2022-09-12T03:21:31.315Z,91.48
2022-09-12T03:22:31.297Z,91.58
2022-09-12T03:23:31.296Z,90.72
2022-09-12T03:24:31.277Z,91.03
2022-09-12T03:25:31.272Z,91.03
2022-09-12T03:26:31.285Z,90.42
2022-09-12T03:27:31.261Z,90.11
2022-09-12T03:28:31.254Z,89.91
2022-09-12T03:29:31.243Z,90.31
2022-09-12T03:30:31.285Z,90.27
2022-09-12T03:31:31.246Z,89.50
2022-09-12T03:32:31.270Z,90.31
2022-09-12T03:33:31.261Z,91.13
2022-09-12T03:34:31.226Z,91.33
2022-09-12T03:35:31.213Z,90.22
2022-09-12T03:36:31.196Z,89.72
2022-09-12T03:37:31.201Z,89.09
2022-09-12T03:38:31.203Z,89.50
2022-09-12T03:39:31.185Z,89.76
2022-09-12T03:40:31.168Z,88.85
2022-09-12T03:41:31.173Z,89.87
2022-09-12T03:42:31.172Z,89.46
2022-09-12T03:43:32.163Z,88.95
2022-09-12T03:44:31.151Z,88.85
2022-09-12T03:45:31.213Z,89.26
2022-09-12T03:46:31.180Z,88.65
2022-09-12T03:47:31.143Z,88.75
2022-09-12T03:48:31.114Z,88.60
2022-09-12T03:49:32.133Z,88.30
2022-09-12T03:50:31.097Z,88.13
2022-09-12T03:51:31.137Z,88.71
2022-09-12T03:52:31.096Z,88.20
2022-09-12T03:53:31.096Z,87.65
2022-09-12T03:54:31.087Z,86.94
2022-09-12T03:55:31.068Z,87.24
2022-09-12T03:56:31.070Z,86.94
2022-09-12T03:57:32.079Z,87.85
2022-09-12T03:58:31.076Z,86.94
2022-09-12T03:59:31.080Z,87.84
2022-09-12T04:00:31.041Z,89.44
2022-09-12T04:01:31.087Z,89.50
2022-09-12T04:02:31.095Z,89.91
2022-09-12T04:03:31.018Z,89.87
2022-09-12T04:04:31.041Z,89.36
2022-09-12T04:05:31.009Z,90.03
2022-09-12T04:06:31.004Z,88.69
2022-09-12T04:07:31.001Z,89.00
2022-09-12T04:08:31.004Z,89.61
2022-09-12T04:09:30.992Z,89.85
2022-09-12T04:10:30.987Z,89.70
2022-09-12T04:11:30.967Z,89.95
2022-09-12T04:12:30.974Z,90.62
2022-09-12T04:13:30.975Z,91.43
2022-09-12T04:14:30.951Z,89.91
2022-09-12T04:15:30.946Z,89.50
2022-09-12T04:16:30.944Z,89.40
2022-09-12T04:17:30.955Z,88.89
2022-09-12T04:18:30.962Z,88.79
2022-09-12T04:19:30.910Z,89.75
2022-09-12T04:20:30.901Z,89.70
2022-09-12T04:21:30.906Z,89.54
2022-09-12T04:22:30.886Z,89.75
2022-09-12T04:23:30.892Z,90.09
2022-09-12T04:24:30.889Z,90.46
2022-09-12T04:25:30.862Z,89.91
2022-09-12T04:26:30.866Z,90.11
2022-09-12T04:27:30.858Z,89.61
2022-09-12T04:28:30.845Z,89.05
2022-09-12T04:29:30.849Z,89.15
2022-09-12T04:30:30.881Z,88.65
2022-09-12T04:31:30.847Z,89.15
2022-09-12T04:32:30.817Z,88.95
2022-09-12T04:33:30.808Z,88.54
2022-09-12T04:34:30.813Z,88.44
2022-09-12T04:35:30.801Z,88.60
2022-09-12T04:36:30.797Z,88.30
2022-09-12T04:37:30.778Z,88.04
2022-09-12T04:38:30.828Z,87.84
2022-09-12T04:39:30.785Z,87.93
2022-09-12T04:40:30.773Z,88.65
2022-09-12T04:41:30.791Z,88.75
2022-09-12T04:42:30.759Z,88.75
2022-09-12T04:43:30.752Z,88.54
2022-09-12T04:44:30.769Z,88.95
2022-09-12T04:45:30.772Z,88.95
2022-09-12T04:46:30.728Z,88.89
2022-09-12T04:47:31.325Z,89.91
2022-09-12T04:48:32.124Z,90.50
2022-09-12T04:49:30.705Z,91.16
2022-09-12T04:50:30.743Z,91.97
2022-09-12T04:51:30.740Z,93.15
2022-09-12T04:52:30.724Z,92.90
2022-09-12T04:53:30.684Z,92.35
2022-09-12T04:54:30.685Z,90.83
2022-09-12T04:55:30.698Z,91.53
2022-09-12T04:56:30.673Z,89.54
2022-09-12T04:57:31.239Z,89.54
2022-09-12T04:58:30.653Z,91.52
2022-09-12T04:59:30.648Z,91.22
2022-09-12T05:00:30.742Z,90.97
2022-09-12T05:01:30.773Z,90.25
2022-09-12T05:02:30.662Z,89.91
2022-09-12T05:03:30.667Z,89.61
2022-09-12T05:04:30.610Z,89.64
2022-09-12T05:05:30.791Z,89.85
2022-09-12T05:06:30.657Z,90.36
2022-09-12T05:07:30.666Z,90.05
2022-09-12T05:08:30.594Z,89.70
2022-09-12T05:09:30.574Z,89.76
2022-09-12T05:10:30.580Z,88.59
2022-09-12T05:11:52.989Z,89.61
2022-09-12T05:12:32.547Z,89.50
2022-09-12T05:13:30.560Z,89.91
2022-09-12T05:14:30.569Z,89.40
2022-09-12T05:15:30.528Z,90.01
2022-09-12T05:16:30.608Z,88.93
2022-09-12T05:17:30.530Z,89.85
2022-09-12T05:18:30.520Z,90.70
2022-09-12T05:19:30.541Z,90.46
2022-09-12T05:20:30.517Z,91.42
2022-09-12T05:21:30.511Z,91.31
2022-09-12T05:22:30.497Z,90.92
2022-09-12T05:23:30.471Z,90.01
2022-09-12T05:24:30.484Z,89.56
2022-09-12T05:25:30.492Z,88.81
2022-09-12T05:26:30.472Z,88.10
2022-09-12T05:27:30.452Z,87.99
2022-09-12T05:28:30.444Z,87.63
2022-09-12T05:29:30.429Z,88.73
2022-09-12T05:30:30.473Z,89.54
2022-09-12T05:31:31.339Z,89.50
2022-09-12T05:32:30.449Z,89.66
2022-09-12T05:33:30.427Z,89.09
2022-09-12T05:34:30.405Z,89.95
2022-09-12T05:35:30.393Z,88.89
2022-09-12T05:36:30.444Z,88.79
2022-09-12T05:37:30.412Z,89.30
2022-09-12T05:38:30.372Z,88.79
2022-09-12T05:39:30.377Z,88.39
2022-09-12T05:40:30.353Z,89.03
2022-09-12T05:41:30.356Z,89.73
2022-09-12T05:42:30.370Z,90.60
2022-09-12T05:43:31.361Z,90.20
2022-09-12T05:44:30.333Z,89.75
2022-09-12T05:45:30.355Z,89.81
2022-09-12T05:46:30.320Z,89.40
2022-09-12T05:47:30.401Z,88.79
2022-09-12T05:48:30.320Z,88.89
2022-09-12T05:49:30.310Z,89.09
2022-09-12T05:50:30.340Z,89.30
2022-09-12T05:51:30.306Z,89.20
2022-09-12T05:52:30.299Z,88.65
2022-09-12T05:53:30.299Z,88.28
2022-09-12T05:54:31.715Z,88.69
2022-09-12T05:55:31.279Z,89.03
2022-09-12T05:56:30.260Z,89.53
2022-09-12T05:57:31.251Z,90.44
2022-09-12T05:58:30.301Z,91.16
2022-09-12T05:59:30.227Z,91.22
2022-09-12T06:00:33.381Z,91.48
2022-09-12T06:01:31.338Z,89.61
2022-09-12T06:02:30.255Z,89.54
2022-09-12T06:03:30.234Z,89.00
2022-09-12T06:04:30.211Z,88.39
2022-09-12T06:05:30.835Z,88.39
2022-09-12T06:06:30.201Z,87.84
2022-09-12T06:07:30.179Z,88.04
2022-09-12T06:08:30.199Z,87.59
2022-09-12T06:09:30.178Z,87.55
2022-09-12T06:10:30.163Z,86.83
2022-09-12T06:11:30.223Z,86.13
2022-09-12T06:12:30.155Z,86.02
2022-09-12T06:13:30.179Z,86.02
2022-09-12T06:14:30.176Z,86.02
2022-09-12T06:15:30.202Z,86.53
2022-09-12T06:16:30.166Z,87.18
2022-09-12T06:17:30.114Z,87.12
2022-09-12T06:18:30.113Z,86.92
2022-09-12T06:19:30.119Z,87.73
2022-09-12T06:20:30.121Z,87.79
2022-09-12T06:21:30.149Z,87.02
2022-09-12T06:22:30.134Z,86.77
2022-09-12T06:23:30.077Z,86.47
2022-09-12T06:24:30.085Z,85.62
2022-09-12T06:25:30.054Z,85.11
2022-09-12T06:26:30.070Z,85.01
2022-09-12T06:27:30.065Z,84.40
2022-09-12T06:28:30.052Z,84.91
2022-09-12T06:29:30.046Z,84.91
2022-09-12T06:30:30.068Z,85.21
2022-09-12T06:31:30.025Z,84.99
2022-09-12T06:32:30.022Z,86.86
2022-09-12T06:33:30.002Z,87.06
2022-09-12T06:34:30.644Z,87.53
2022-09-12T06:35:30.007Z,87.02
2022-09-12T06:36:30.006Z,86.76
2022-09-12T06:37:29.985Z,87.26
2022-09-12T06:38:30.021Z,87.98
2022-09-12T06:39:29.976Z,88.08
2022-09-12T06:40:29.962Z,88.34
2022-09-12T06:41:29.966Z,87.12
2022-09-12T06:42:29.959Z,86.16
2022-09-12T06:43:29.949Z,85.11
2022-09-12T06:44:29.958Z,84.40
2022-09-12T06:45:29.935Z,85.31
2022-09-12T06:46:29.916Z,85.31
2022-09-12T06:47:29.919Z,85.47
2022-09-12T06:48:29.912Z,84.46
2022-09-12T06:49:29.919Z,82.70
2022-09-12T06:50:29.916Z,83.10
2022-09-12T06:51:29.937Z,83.31
2022-09-12T06:52:29.939Z,82.45
2022-09-12T06:53:29.884Z,81.68
2022-09-12T06:54:29.873Z,82.12
2022-09-12T06:56:01.845Z,82.94
2022-09-12T06:56:29.869Z,82.39
2022-09-12T06:57:29.857Z,82.53
2022-09-12T06:58:29.854Z,82.59
2022-09-12T06:59:29.844Z,82.39
2022-09-12T07:00:29.849Z,82.84
2022-09-12T07:01:29.917Z,83.24
2022-09-12T07:02:29.839Z,84.56
2022-09-12T07:03:29.825Z,82.94
2022-09-12T07:04:29.811Z,83.20
2022-09-12T07:05:29.822Z,82.45
2022-09-12T07:06:29.831Z,82.62
2022-09-12T07:07:29.781Z,81.81
2022-09-12T07:08:29.805Z,81.81
2022-09-12T07:09:29.777Z,80.86
2022-09-12T07:10:29.797Z,80.86
2022-09-12T07:11:29.763Z,80.45
2022-09-12T07:12:29.781Z,79.80
2022-09-12T07:13:29.757Z,80.92
2022-09-12T07:14:29.760Z,80.86
2022-09-12T07:15:29.752Z,81.81
2022-09-12T07:16:30.409Z,81.46
2022-09-12T07:17:29.778Z,80.41
2022-09-12T07:18:29.745Z,80.05
2022-09-12T07:19:29.719Z,80.76
2022-09-12T07:20:29.761Z,80.52
2022-09-12T07:21:29.733Z,80.41
2022-09-12T07:22:30.709Z,80.65
2022-09-12T07:23:29.694Z,82.11
2022-09-12T07:24:29.685Z,82.31
2022-09-12T07:25:29.697Z,82.38
2022-09-12T07:26:29.690Z,81.91
2022-09-12T07:27:29.728Z,82.28
2022-09-12T07:28:29.672Z,81.32
2022-09-12T07:29:37.917Z,80.27
2022-09-12T07:30:31.691Z,79.06
2022-09-12T07:31:29.676Z,79.53
2022-09-12T07:32:30.376Z,79.43
2022-09-12T07:33:29.632Z,78.92
2022-09-12T07:34:29.627Z,78.38
2022-09-12T07:35:29.634Z,78.62
2022-09-12T07:36:29.623Z,79.22
2022-09-12T07:37:29.615Z,78.75
2022-09-12T07:38:30.371Z,79.46
2022-09-12T07:39:29.595Z,80.92
2022-09-12T07:40:29.586Z,81.02
2022-09-12T07:41:29.595Z,80.27
2022-09-12T07:42:29.578Z,81.32
2022-09-12T07:43:29.570Z,80.41
2022-09-12T07:44:29.573Z,80.88
2022-09-12T07:45:29.562Z,80.47
2022-09-12T07:46:29.573Z,80.04
2022-09-12T07:47:29.537Z,79.43
2022-09-12T07:48:29.538Z,79.19
2022-09-12T07:49:29.529Z,78.88
2022-09-12T07:50:29.526Z,78.68
2022-09-12T07:51:29.552Z,78.38
2022-09-12T07:52:29.526Z,79.08
2022-09-12T07:53:29.528Z,79.53
2022-09-12T07:54:29.495Z,80.50
2022-09-12T07:55:29.511Z,80.24
2022-09-12T07:56:31.889Z,79.83
2022-09-12T07:57:30.498Z,80.84
2022-09-12T07:58:29.498Z,80.26
2022-09-12T07:59:51.363Z,78.95
2022-09-12T08:00:31.481Z,78.55
2022-09-12T08:01:29.523Z,77.60
2022-09-12T08:02:29.604Z,77.50
2022-09-12T08:03:29.465Z,77.06
2022-09-12T08:04:29.455Z,76.21
2022-09-12T08:05:29.446Z,74.96
2022-09-12T08:06:29.474Z,74.90
2022-09-12T08:07:29.466Z,76.65
2022-09-12T08:08:29.462Z,76.86
2022-09-12T08:09:29.403Z,77.29
2022-09-12T08:10:29.422Z,77.84
2022-09-12T08:11:29.425Z,78.55
2022-09-12T08:12:29.481Z,78.37
2022-09-12T08:13:29.398Z,77.22
2022-09-12T08:14:29.406Z,75.20
2022-09-12T08:15:29.442Z,76.31
2022-09-12T08:16:29.378Z,76.55
2022-09-12T08:17:29.394Z,77.83
2022-09-12T08:18:29.361Z,76.62
2022-09-12T08:19:29.358Z,75.40
2022-09-12T08:20:29.445Z,75.36
2022-09-12T08:21:29.346Z,72.88
2022-09-12T08:22:29.386Z,71.83
2022-09-12T08:23:29.337Z,71.00
2022-09-12T08:24:29.351Z,69.02
2022-09-12T08:25:29.326Z,69.09
2022-09-12T08:26:29.334Z,69.32
2022-09-12T08:27:29.322Z,68.59
2022-09-12T08:28:29.322Z,70.53
2022-09-12T08:29:29.303Z,70.66
2022-09-12T08:30:29.308Z,69.12
2022-09-12T08:31:29.283Z,69.22
2022-09-12T08:32:29.273Z,69.12
2022-09-12T08:33:29.278Z,67.72
2022-09-12T08:34:29.273Z,66.15
2022-09-12T08:35:29.297Z,65.52
2022-09-12T08:36:29.257Z,64.18
2022-09-12T08:37:29.245Z,64.18
2022-09-12T08:38:29.265Z,64.92
2022-09-12T08:39:29.253Z,65.98
2022-09-12T08:40:29.243Z,66.68
2022-09-12T08:41:29.218Z,66.15
2022-09-12T08:42:29.221Z,65.05
2022-09-12T08:43:29.206Z,64.48
2022-09-12T08:44:29.256Z,65.05
2022-09-12T08:45:29.209Z,64.54
2022-09-12T08:46:29.249Z,64.48
2022-09-12T08:47:29.184Z,63.85
2022-09-12T08:48:29.340Z,62.66
2022-09-12T08:49:29.204Z,61.04
2022-09-12T08:50:29.188Z,60.61
2022-09-12T08:51:29.173Z,60.00
2022-09-12T08:52:29.148Z,58.95
2022-09-12T08:53:29.136Z,59.18
2022-09-12T08:54:29.140Z,61.59
2022-09-12T08:55:29.128Z,60.00
2022-09-12T08:56:31.660Z,58.72
2022-09-12T08:57:30.128Z,56.65
2022-09-12T08:58:29.106Z,55.40
2022-09-12T08:59:29.112Z,55.65
2022-09-12T09:00:29.117Z,57.15
2022-09-12T09:01:29.135Z,56.42
2022-09-12T09:02:29.154Z,54.78
2022-09-12T09:03:29.096Z,54.25
2022-09-12T09:04:29.140Z,52.24
2022-09-12T09:05:29.094Z,50.78
2022-09-12T09:06:29.161Z,49.19
2022-09-12T09:07:29.069Z,50.76
2022-09-12T09:08:29.121Z,51.05
2022-09-12T09:09:29.914Z,51.30
2022-09-12T09:10:29.026Z,51.54
2022-09-12T09:11:29.102Z,51.23
2022-09-12T09:12:29.005Z,51.12
2022-09-12T09:13:29.002Z,50.68
2022-09-12T09:14:29.020Z,47.25
2022-09-12T09:15:29.036Z,48.58
2022-09-12T09:16:29.002Z,48.43
2022-09-12T09:17:28.982Z,46.66
2022-09-12T09:18:29.140Z,46.29
2022-09-12T09:19:28.988Z,47.13
2022-09-12T09:20:28.960Z,46.91
2022-09-12T09:21:28.948Z,48.14
2022-09-12T09:22:28.957Z,48.38
2022-09-12T09:23:28.940Z,48.97
2022-09-12T09:24:28.948Z,49.13
2022-09-12T09:25:28.935Z,48.93
2022-09-12T09:26:28.932Z,49.22
2022-09-12T09:27:40.591Z,49.02
2022-09-12T09:28:30.943Z,47.38
2022-09-12T09:29:28.936Z,46.69
2022-09-12T09:30:28.970Z,46.98
2022-09-12T09:31:28.957Z,48.46
2022-09-12T09:32:28.922Z,50.58
2022-09-12T09:33:28.887Z,50.68
2022-09-12T09:34:29.400Z,50.53
2022-09-12T09:35:32.104Z,48.83
2022-09-12T09:36:29.909Z,48.51
2022-09-12T09:37:28.904Z,47.57
2022-09-12T09:38:28.876Z,47.50
2022-09-12T09:39:28.852Z,46.66
2022-09-12T09:40:28.856Z,46.74
2022-09-12T09:41:28.871Z,48.02
2022-09-12T09:42:28.830Z,48.97
2022-09-12T09:43:28.830Z,49.77
2022-09-12T09:44:28.813Z,51.82
2022-09-12T09:45:28.817Z,54.70
2022-09-12T09:46:28.842Z,55.94
2022-09-12T09:47:28.798Z,57.29
2022-09-12T09:48:28.813Z,59.06
2022-09-12T09:49:28.801Z,59.56
2022-09-12T09:50:28.785Z,58.76
2022-09-12T09:51:28.855Z,57.82
2022-09-12T09:52:28.771Z,60.09
2022-09-12T09:53:28.788Z,60.36
2022-09-12T09:54:28.750Z,60.16
2022-09-12T09:55:28.738Z,61.49
2022-09-12T09:56:28.773Z,60.79
2022-09-12T09:57:28.733Z,60.66
2022-09-12T09:58:28.735Z,60.96
2022-09-12T09:59:28.749Z,60.76
2022-09-12T10:00:28.711Z,60.69
2022-09-12T10:01:28.738Z,60.46
2022-09-12T10:02:28.711Z,60.46
2022-09-12T10:03:28.713Z,60.56
2022-09-12T10:04:28.725Z,60.59
2022-09-12T10:05:28.724Z,60.56
2022-09-12T10:06:28.713Z,61.99
2022-09-12T10:07:28.701Z,60.83
2022-09-12T10:08:28.679Z,58.61
2022-09-12T10:09:28.696Z,57.79
2022-09-12T10:10:28.659Z,57.26
2022-09-12T10:11:28.657Z,56.32
2022-09-12T10:12:28.661Z,55.79
2022-09-12T10:13:28.634Z,55.40
2022-09-12T10:14:28.640Z,55.83
2022-09-12T10:15:28.688Z,54.10
2022-09-12T10:16:29.405Z,53.70
2022-09-12T10:17:33.215Z,55.04
2022-09-12T10:18:30.598Z,55.04
2022-09-12T10:19:28.649Z,55.32
2022-09-12T10:20:28.601Z,54.49
2022-09-12T10:21:28.586Z,53.25
2022-09-12T10:22:28.586Z,53.06
2022-09-12T10:23:28.575Z,52.54
2022-09-12T10:24:28.569Z,51.84
2022-09-12T10:25:28.620Z,51.03
2022-09-12T10:26:29.469Z,51.10
2022-09-12T10:27:28.541Z,50.48
2022-09-12T10:28:28.546Z,49.05
2022-09-12T10:29:28.529Z,48.27
2022-09-12T10:30:28.827Z,50.31
2022-09-12T10:31:28.548Z,49.87
2022-09-12T10:32:30.922Z,49.37
2022-09-12T10:33:29.528Z,48.56
2022-09-12T10:34:28.503Z,47.01
2022-09-12T10:35:28.536Z,46.67
2022-09-12T10:36:28.512Z,46.54
2022-09-12T10:37:29.440Z,49.10
2022-09-12T10:38:28.487Z,48.88
2022-09-12T10:39:28.474Z,51.67
2022-09-12T10:40:28.471Z,52.61
2022-09-12T10:41:28.493Z,52.39
2022-09-12T10:42:28.470Z,50.51
2022-09-12T10:43:28.456Z,48.78
2022-09-12T10:44:28.446Z,46.84
2022-09-12T10:45:28.486Z,45.78
2022-09-12T10:46:28.523Z,45.45
2022-09-12T10:47:28.486Z,43.53
2022-09-12T10:48:28.414Z,42.57
2022-09-12T10:49:28.450Z,44.58
2022-09-12T10:50:28.421Z,43.75
2022-09-12T10:51:28.426Z,43.19
2022-09-12T10:52:28.426Z,42.53
2022-09-12T10:53:32.387Z,43.22
2022-09-12T10:54:30.420Z,43.87
2022-09-12T10:55:28.489Z,44.51
2022-09-12T10:56:28.389Z,46.04
2022-09-12T10:57:28.405Z,46.88
2022-09-12T10:58:28.379Z,46.66
2022-09-12T10:59:28.377Z,46.86
2022-09-12T11:00:28.362Z,45.81
2022-09-12T11:01:28.411Z,44.48
2022-09-12T11:02:28.398Z,43.57
2022-09-12T11:03:29.371Z,42.86
2022-09-12T11:04:28.338Z,43.32
2022-09-12T11:05:28.346Z,42.32
2022-09-12T11:06:28.353Z,42.29
2022-09-12T11:07:28.360Z,40.92
2022-09-12T11:08:28.344Z,42.06
2022-09-12T11:09:28.328Z,41.06
2022-09-12T11:10:30.191Z,43.10
2022-09-12T11:11:28.355Z,44.43
2022-09-12T11:12:28.348Z,44.13
2022-09-12T11:13:28.311Z,43.32
2022-09-12T11:14:28.299Z,44.01
2022-09-12T11:15:28.395Z,44.23
2022-09-12T11:16:28.309Z,44.11
2022-09-12T11:17:28.935Z,44.53
2022-09-12T11:18:29.366Z,44.65
2022-09-12T11:19:28.269Z,44.13
2022-09-12T11:20:28.305Z,42.68
2022-09-12T11:21:28.611Z,43.37
2022-09-12T11:22:31.757Z,44.16
2022-09-12T11:23:29.277Z,46.78
2022-09-12T11:24:28.260Z,47.37
2022-09-12T11:25:28.276Z,47.07
2022-09-12T11:26:28.233Z,47.54
2022-09-12T11:27:28.266Z,47.05
2022-09-12T11:28:28.265Z,46.83
2022-09-12T11:29:28.257Z,47.30
2022-09-12T11:30:28.308Z,47.07
2022-09-12T11:31:28.226Z,48.40
2022-09-12T11:32:28.206Z,48.26
2022-09-12T11:33:28.235Z,48.26
2022-09-12T11:34:28.194Z,48.97
2022-09-12T11:35:28.194Z,48.75
2022-09-12T11:36:28.194Z,47.81
2022-09-12T11:37:28.222Z,47.84
2022-09-12T11:38:28.168Z,47.17
2022-09-12T11:39:28.201Z,46.45
2022-09-12T11:40:28.220Z,47.34
2022-09-12T11:41:28.164Z,46.23
2022-09-12T11:42:28.171Z,45.92
2022-09-12T11:43:28.152Z,47.19
2022-09-12T11:44:28.147Z,49.05
2022-09-12T11:45:28.125Z,51.28
2022-09-12T11:46:28.234Z,49.89
2022-09-12T11:47:28.107Z,48.72
2022-09-12T11:48:28.149Z,49.02
2022-09-12T11:49:28.829Z,48.82
2022-09-12T11:50:28.152Z,48.77
2022-09-12T11:51:28.092Z,47.99
2022-09-12T11:52:28.114Z,48.33
2022-09-12T11:53:28.081Z,49.07
2022-09-12T11:54:28.090Z,49.22
2022-09-12T11:55:28.061Z,48.55
2022-09-12T11:56:28.088Z,48.43
2022-09-12T11:57:28.059Z,49.40
2022-09-12T11:58:28.036Z,49.02
2022-09-12T11:59:28.051Z,49.15
2022-09-12T12:00:28.854Z,48.94
2022-09-12T12:01:28.033Z,50.83
2022-09-12T12:02:28.091Z,49.84
2022-09-12T12:03:28.062Z,50.88
2022-09-12T12:04:27.993Z,51.30
2022-09-12T12:05:28.014Z,51.89
2022-09-12T12:06:28.034Z,50.85
2022-09-12T12:07:28.003Z,50.23
2022-09-12T12:08:28.871Z,48.13
2022-09-12T12:09:27.969Z,49.24
2022-09-12T12:10:27.983Z,48.75
2022-09-12T12:11:27.978Z,50.26
2022-09-12T12:12:27.964Z,48.92
2022-09-12T12:13:27.974Z,48.28
2022-09-12T12:14:27.929Z,47.27
2022-09-12T12:15:28.000Z,46.85
2022-09-12T12:16:28.016Z,46.41
2022-09-12T12:17:27.918Z,46.00
2022-09-12T12:18:27.936Z,46.41
2022-09-12T12:19:27.910Z,44.79
2022-09-12T12:20:28.938Z,43.46
2022-09-12T12:21:27.957Z,43.96
2022-09-12T12:22:27.926Z,43.93
2022-09-12T12:23:27.914Z,43.54
2022-09-12T12:24:27.891Z,44.03
2022-09-12T12:25:30.031Z,44.18
2022-09-12T12:26:28.951Z,45.23
2022-09-12T12:27:27.891Z,44.76
2022-09-12T12:28:27.880Z,44.07
2022-09-12T12:29:27.845Z,46.63
2022-09-12T12:30:27.856Z,45.94
2022-09-12T12:31:27.898Z,46.75
2022-09-12T12:32:27.857Z,47.27
2022-09-12T12:33:27.935Z,46.70
2022-09-12T12:34:27.834Z,48.53
2022-09-12T12:35:28.464Z,48.01
2022-09-12T12:36:27.807Z,46.95
2022-09-12T12:37:28.091Z,46.22
2022-09-12T12:38:27.778Z,46.69
2022-09-12T12:39:28.946Z,45.48
2022-09-12T12:40:27.768Z,44.20
2022-09-12T12:41:27.781Z,44.89
2022-09-12T12:42:27.798Z,44.29
2022-09-12T12:43:27.795Z,44.69
2022-09-12T12:44:27.738Z,46.53
2022-09-12T12:45:27.737Z,47.17
2022-09-12T12:46:27.945Z,46.85
2022-09-12T12:47:27.785Z,46.66
2022-09-12T12:48:27.978Z,46.73
2022-09-12T12:49:27.713Z,46.81
2022-09-12T12:50:27.701Z,45.38
2022-09-12T12:51:27.709Z,46.67
2022-09-12T12:52:27.686Z,47.42